createdAt,value
2018-10-18T00:01:31.874Z,12.45
2018-10-18T00:04:00.778Z,13.25
2018-10-18T00:06:29.839Z,13.58
2018-10-18T00:08:58.767Z,12.20
2018-10-18T00:11:27.742Z,14.00
2018-10-18T00:13:56.688Z,14.18
2018-10-18T00:16:25.554Z,15.60
2018-10-18T00:18:54.461Z,13.45
2018-10-18T00:21:23.408Z,13.15
2018-10-18T00:23:52.411Z,14.98
2018-10-18T00:26:21.379Z,13.93
2018-10-18T00:28:50.287Z,13.48
2018-10-18T00:31:19.195Z,14.15
2018-10-18T00:33:48.186Z,14.87
2018-10-18T00:36:18.127Z,12.95
2018-10-18T00:38:46.877Z,12.98
2018-10-18T00:41:15.918Z,13.22
2018-10-18T00:43:44.931Z,14.93
2018-10-18T00:46:13.917Z,13.08
2018-10-18T00:48:42.930Z,13.13
2018-10-18T00:51:11.911Z,14.87
2018-10-18T00:53:40.826Z,14.60
2018-10-18T00:56:09.855Z,13.75
2018-10-18T00:58:38.816Z,14.83
2018-10-18T01:01:07.710Z,14.23
2018-10-18T01:03:36.771Z,12.53
2018-10-18T01:06:05.987Z,13.43
2018-10-18T01:08:34.870Z,13.80
2018-10-18T01:11:03.798Z,13.98
2018-10-18T01:13:32.743Z,12.82
2018-10-18T01:16:01.638Z,13.35
2018-10-18T01:18:30.535Z,14.07
2018-10-18T01:20:59.417Z,14.73
2018-10-18T01:23:28.316Z,14.65
2018-10-18T01:25:57.238Z,13.32
2018-10-18T01:28:26.134Z,14.13
2018-10-18T01:30:55.060Z,14.75
2018-10-18T01:33:24.010Z,12.85
2018-10-18T01:35:52.984Z,14.05
2018-10-18T01:38:21.847Z,12.63
2018-10-18T01:40:51.089Z,14.15
2018-10-18T01:43:19.980Z,13.22
2018-10-18T01:45:48.919Z,14.20
2018-10-18T01:48:17.825Z,13.65
2018-10-18T01:50:46.707Z,14.85
2018-10-18T01:53:15.596Z,14.10
2018-10-18T01:55:44.495Z,14.28
2018-10-18T01:58:13.386Z,13.18
2018-10-18T02:00:42.310Z,13.25
2018-10-18T02:03:11.198Z,12.90
2018-10-18T02:05:40.154Z,13.93
2018-10-18T02:08:09.152Z,14.53
2018-10-18T02:10:37.975Z,13.53
2018-10-18T02:13:06.995Z,14.80
2018-10-18T02:15:35.927Z,13.90
2018-10-18T02:18:05.312Z,15.05
2018-10-18T02:20:34.134Z,15.68
2018-10-18T02:23:03.039Z,13.15
2018-10-18T02:25:31.978Z,14.38
2018-10-18T02:28:00.856Z,13.72
2018-10-18T02:30:29.763Z,14.25
2018-10-18T02:32:58.673Z,13.65
2018-10-18T02:35:27.593Z,12.90
2018-10-18T02:37:56.493Z,14.05
2018-10-18T02:40:25.406Z,15.43
2018-10-18T02:42:54.315Z,13.22
2018-10-18T02:45:23.219Z,14.35
2018-10-18T02:47:52.125Z,13.90
2018-10-18T02:50:21.048Z,14.65
2018-10-18T02:52:49.966Z,13.62
2018-10-18T02:55:19.246Z,14.30
2018-10-18T02:57:48.201Z,12.65
2018-10-18T03:00:17.191Z,13.95
2018-10-18T03:02:46.065Z,13.80
2018-10-18T03:05:14.970Z,15.20
2018-10-18T03:07:43.914Z,13.72
2018-10-18T03:10:12.835Z,13.32
2018-10-18T03:12:41.722Z,14.40
2018-10-18T03:15:10.846Z,14.87
2018-10-18T03:17:39.738Z,12.75
2018-10-18T03:20:08.705Z,13.90
2018-10-18T03:22:37.597Z,13.60
2018-10-18T03:25:07.886Z,13.62
2018-10-18T03:27:36.859Z,15.72
2018-10-18T03:30:06.680Z,13.32
2018-10-18T03:32:35.695Z,13.62
2018-10-18T03:35:05.645Z,14.40
2018-10-18T03:37:34.642Z,14.47
2018-10-18T03:40:03.687Z,14.85
2018-10-18T03:42:32.631Z,13.68
2018-10-18T03:45:01.558Z,13.08
2018-10-18T03:47:30.443Z,13.90
2018-10-18T03:49:59.358Z,14.15
2018-10-18T03:52:28.269Z,13.25
2018-10-18T03:54:57.182Z,12.25
2018-10-18T03:57:26.056Z,11.93
2018-10-18T03:59:55.016Z,13.32
2018-10-18T04:02:24.039Z,14.35
2018-10-18T04:04:53.051Z,13.25
2018-10-18T04:07:21.979Z,14.35
2018-10-18T04:09:50.893Z,13.50
2018-10-18T04:12:19.909Z,14.40
2018-10-18T04:14:48.814Z,14.38
2018-10-18T04:17:18.060Z,13.05
2018-10-18T04:19:46.954Z,13.98
2018-10-18T04:22:15.874Z,14.40
2018-10-18T04:24:44.875Z,14.07
2018-10-18T04:27:13.766Z,13.78
2018-10-18T04:29:42.777Z,14.28
2018-10-18T04:32:11.750Z,15.43
2018-10-18T04:34:40.644Z,14.40
2018-10-18T04:37:09.585Z,13.22
2018-10-18T04:39:38.464Z,13.75
2018-10-18T04:42:07.439Z,13.70
2018-10-18T04:44:36.282Z,13.38
2018-10-18T04:47:06.170Z,14.23
2018-10-18T04:49:35.010Z,13.13
2018-10-18T04:52:03.958Z,14.65
2018-10-18T04:54:32.848Z,14.60
2018-10-18T04:57:02.047Z,14.33
2018-10-18T04:59:30.951Z,13.48
2018-10-18T05:01:59.989Z,13.90
2018-10-18T05:04:28.889Z,14.90
2018-10-18T05:06:57.882Z,13.93
2018-10-18T05:09:26.779Z,14.95
2018-10-18T05:11:55.693Z,14.75
2018-10-18T05:14:24.609Z,13.95
2018-10-18T05:16:53.542Z,15.30
2018-10-18T05:19:25.094Z,15.08
2018-10-18T05:21:54.023Z,14.10
2018-10-18T05:24:23.503Z,14.87
2018-10-18T05:26:52.489Z,14.85
2018-10-18T05:29:21.391Z,15.13
2018-10-18T05:31:52.212Z,13.80
2018-10-18T05:34:21.143Z,14.73
2018-10-18T05:36:50.129Z,14.25
2018-10-18T05:39:19.122Z,13.75
2018-10-18T05:41:48.067Z,15.55
2018-10-18T05:44:16.987Z,15.95
2018-10-18T05:46:45.945Z,16.10
2018-10-18T05:49:14.899Z,15.23
2018-10-18T05:51:43.756Z,14.25
2018-10-18T05:54:12.740Z,15.95
2018-10-18T05:56:41.627Z,15.95
2018-10-18T05:59:10.567Z,14.13
2018-10-18T06:01:39.502Z,14.40
2018-10-18T06:04:08.442Z,15.45
2018-10-18T06:06:37.394Z,13.78
2018-10-18T06:09:10.626Z,15.40
2018-10-18T06:11:39.543Z,14.63
2018-10-18T06:14:08.478Z,15.32
2018-10-18T06:16:37.401Z,17.32
2018-10-18T06:19:06.419Z,15.23
2018-10-18T06:21:35.299Z,14.55
2018-10-18T06:24:04.238Z,15.13
2018-10-18T06:26:33.163Z,14.85
2018-10-18T06:29:02.128Z,13.65
2018-10-18T06:31:30.993Z,15.68
2018-10-18T06:33:59.943Z,16.20
2018-10-18T06:36:28.858Z,16.20
2018-10-18T06:38:57.902Z,16.60
2018-10-18T06:41:27.863Z,16.75
2018-10-18T06:43:56.795Z,15.58
2018-10-18T06:46:25.719Z,15.38
2018-10-18T06:48:54.739Z,16.60
2018-10-18T06:51:23.585Z,15.40
2018-10-18T06:53:52.583Z,15.32
2018-10-18T06:56:21.506Z,15.68
2018-10-18T06:58:50.478Z,15.90
2018-10-18T07:01:19.438Z,16.30
2018-10-18T07:03:48.459Z,16.97
2018-10-18T07:06:18.237Z,16.90
2018-10-18T07:08:47.163Z,19.48
2018-10-18T07:11:16.077Z,17.60
2018-10-18T07:13:45.175Z,19.67
2018-10-18T07:16:14.119Z,17.87
2018-10-18T07:18:43.058Z,16.77
2018-10-18T07:21:12.078Z,16.77
2018-10-18T07:23:41.045Z,17.87
2018-10-18T07:26:09.967Z,16.73
2018-10-18T07:28:38.924Z,18.23
2018-10-18T07:31:07.882Z,17.65
2018-10-18T07:33:36.837Z,17.35
2018-10-18T07:36:06.097Z,19.95
2018-10-18T07:38:34.999Z,18.90
2018-10-18T07:41:04.037Z,18.02
2018-10-18T07:43:32.898Z,17.05
2018-10-18T07:46:01.816Z,16.23
2018-10-18T07:48:30.802Z,16.57
2018-10-18T07:50:59.746Z,16.37
2018-10-18T07:53:28.774Z,16.57
2018-10-18T07:55:57.605Z,15.78
2018-10-18T07:58:26.587Z,16.60
2018-10-18T08:00:55.568Z,15.50
2018-10-18T08:03:24.478Z,17.52
2018-10-18T08:05:53.422Z,16.02
2018-10-18T08:08:22.866Z,16.97
2018-10-18T08:10:51.831Z,16.12
2018-10-18T08:13:20.840Z,18.87
2018-10-18T08:15:49.686Z,17.23
2018-10-18T08:18:18.658Z,16.35
2018-10-18T08:20:47.566Z,17.95
2018-10-18T08:23:17.019Z,16.70
2018-10-18T08:25:45.954Z,15.78
2018-10-18T08:28:14.876Z,17.40
2018-10-18T08:30:43.812Z,17.37
2018-10-18T08:33:12.758Z,16.27
2018-10-18T08:35:42.541Z,17.37
2018-10-18T08:38:11.509Z,17.37
2018-10-18T08:40:40.391Z,16.57
2018-10-18T08:43:09.383Z,18.17
2018-10-18T08:45:38.210Z,17.07
2018-10-18T08:48:07.167Z,17.32
2018-10-18T08:50:36.086Z,15.72
2018-10-18T08:53:05.415Z,19.17
2018-10-18T08:55:34.410Z,18.60
2018-10-18T08:58:03.343Z,17.57
2018-10-18T09:00:32.275Z,17.37
2018-10-18T09:03:01.199Z,17.17
2018-10-18T09:05:30.105Z,16.77
2018-10-18T09:07:59.059Z,18.00
2018-10-18T09:10:27.978Z,17.62
2018-10-18T09:12:56.957Z,16.90
2018-10-18T09:15:25.827Z,17.40
2018-10-18T09:17:54.807Z,17.37
2018-10-18T09:20:23.743Z,16.82
2018-10-18T09:22:52.690Z,16.90
2018-10-18T09:25:21.715Z,15.90
2018-10-18T09:27:50.680Z,17.25
2018-10-18T09:30:19.715Z,17.55
2018-10-18T09:32:48.646Z,19.40
2018-10-18T09:35:17.614Z,17.67
2018-10-18T09:37:46.567Z,17.57
2018-10-18T09:40:15.539Z,17.30
2018-10-18T09:42:44.450Z,17.50
2018-10-18T09:45:13.503Z,17.73
2018-10-18T09:47:42.433Z,17.57
2018-10-18T09:50:12.330Z,16.17
2018-10-18T09:52:41.275Z,19.05
2018-10-18T09:55:11.822Z,17.35
2018-10-18T09:57:41.254Z,17.62
2018-10-18T10:00:14.562Z,16.45
2018-10-18T10:02:50.170Z,16.82
2018-10-18T10:05:20.130Z,17.95
2018-10-18T10:07:49.090Z,18.50
2018-10-18T10:10:18.279Z,18.50
2018-10-18T10:12:48.041Z,16.40
2018-10-18T10:15:16.987Z,18.40
2018-10-18T10:17:45.967Z,15.95
2018-10-18T10:20:14.840Z,16.95
2018-10-18T10:22:43.797Z,17.82
2018-10-18T10:25:12.841Z,17.25
2018-10-18T10:27:41.746Z,17.23
2018-10-18T10:30:10.716Z,17.60
2018-10-18T10:32:39.607Z,18.98
2018-10-18T10:35:08.994Z,19.05
2018-10-18T10:37:37.890Z,17.40
2018-10-18T10:40:07.915Z,17.92
2018-10-18T10:42:36.818Z,17.60
2018-10-18T10:45:07.208Z,19.98
2018-10-18T10:47:36.087Z,17.42
2018-10-18T10:50:05.180Z,18.32
2018-10-18T10:52:34.119Z,17.80
2018-10-18T10:55:03.110Z,16.37
2018-10-18T10:57:32.138Z,17.45
2018-10-18T11:00:01.114Z,18.07
2018-10-18T11:02:30.000Z,18.03
2018-10-18T11:04:58.946Z,18.82
2018-10-18T11:07:27.892Z,18.63
2018-10-18T11:09:56.810Z,17.37
2018-10-18T11:12:25.964Z,17.93
2018-10-18T11:14:54.872Z,16.20
2018-10-18T11:17:23.951Z,17.80
2018-10-18T11:19:52.910Z,16.70
2018-10-18T11:22:21.966Z,17.82
2018-10-18T11:24:51.012Z,15.50
2018-10-18T11:27:20.031Z,15.07
2018-10-18T11:29:48.917Z,15.10
2018-10-18T11:32:17.994Z,14.37
2018-10-18T11:34:46.848Z,13.97
2018-10-18T11:37:15.819Z,12.40
2018-10-18T11:39:44.743Z,14.97
2018-10-18T11:42:13.768Z,15.07
2018-10-18T11:44:42.641Z,13.03
2018-10-18T11:47:12.286Z,14.60
2018-10-18T11:49:41.573Z,13.63
2018-10-18T11:52:10.613Z,15.23
2018-10-18T11:54:39.469Z,12.97
2018-10-18T11:57:08.400Z,13.50
2018-10-18T11:59:37.339Z,12.60
2018-10-18T12:02:06.575Z,13.80
2018-10-18T12:04:35.414Z,13.00
2018-10-18T12:07:04.638Z,14.23
2018-10-18T12:09:33.565Z,12.80
2018-10-18T12:12:02.514Z,13.23
2018-10-18T12:14:31.435Z,13.30
2018-10-18T12:17:00.417Z,13.10
2018-10-18T12:19:29.294Z,13.90
2018-10-18T12:21:58.234Z,15.13
2018-10-18T12:24:27.182Z,13.80
2018-10-18T12:26:56.227Z,14.33
2018-10-18T12:29:25.098Z,14.30
2018-10-18T12:31:54.138Z,12.10
2018-10-18T12:34:23.078Z,15.33
2018-10-18T12:36:52.046Z,13.43
2018-10-18T12:39:21.071Z,13.27
2018-10-18T12:41:50.089Z,12.47
2018-10-18T12:44:19.011Z,14.00
2018-10-18T12:46:47.925Z,13.43
2018-10-18T12:49:16.920Z,13.87
2018-10-18T12:51:45.934Z,13.23
2018-10-18T12:54:14.908Z,13.77
2018-10-18T12:56:43.785Z,16.20
2018-10-18T12:59:12.742Z,14.57
2018-10-18T13:01:41.670Z,14.37
2018-10-18T13:04:10.724Z,15.07
2018-10-18T13:06:39.686Z,15.50
2018-10-18T13:09:09.680Z,14.53
2018-10-18T13:11:38.662Z,16.40
2018-10-18T13:14:07.617Z,14.20
2018-10-18T13:16:36.534Z,14.07
2018-10-18T13:19:05.769Z,15.90
2018-10-18T13:21:34.712Z,14.27
2018-10-18T13:24:03.682Z,16.17
2018-10-18T13:26:32.623Z,15.30
2018-10-18T13:29:01.544Z,13.90
2018-10-18T13:31:30.482Z,15.10
2018-10-18T13:33:59.465Z,14.07
2018-10-18T13:36:28.376Z,16.33
2018-10-18T13:38:57.315Z,15.47
2018-10-18T13:41:26.404Z,14.47
2018-10-18T13:43:55.440Z,15.50
2018-10-18T13:46:24.440Z,13.87
2018-10-18T13:48:53.375Z,14.80
2018-10-18T13:51:22.322Z,12.70
2018-10-18T13:53:51.358Z,12.70
2018-10-18T13:56:20.371Z,14.30
2018-10-18T13:58:49.369Z,14.80
2018-10-18T14:01:18.438Z,12.00
2018-10-18T14:03:47.357Z,13.27
2018-10-18T14:06:16.347Z,12.30
2018-10-18T14:08:45.598Z,13.47
2018-10-18T14:11:15.047Z,13.47
2018-10-18T14:13:44.257Z,13.10
2018-10-18T14:16:13.579Z,14.80
2018-10-18T14:18:42.507Z,13.00
2018-10-18T14:21:11.467Z,12.83
2018-10-18T14:23:40.453Z,13.43
2018-10-18T14:26:09.970Z,11.63
2018-10-18T14:28:38.899Z,11.80
2018-10-18T14:31:07.860Z,12.30
2018-10-18T14:33:36.803Z,12.03
2018-10-18T14:36:06.701Z,12.23
2018-10-18T14:38:35.762Z,12.93
2018-10-18T14:41:04.685Z,14.13
2018-10-18T14:43:33.628Z,12.90
2018-10-18T14:46:02.580Z,13.73
2018-10-18T14:48:31.502Z,12.33
2018-10-18T14:51:00.541Z,12.90
2018-10-18T14:53:29.501Z,11.63
2018-10-18T14:55:58.476Z,10.90
2018-10-18T14:58:27.412Z,11.23
2018-10-18T15:00:56.391Z,12.57
2018-10-18T15:03:25.313Z,10.97
2018-10-18T15:05:54.335Z,11.83
2018-10-18T15:08:23.283Z,10.30
2018-10-18T15:10:52.270Z,11.23
2018-10-18T15:13:21.231Z,11.77
2018-10-18T15:15:50.209Z,10.90
2018-10-18T15:18:19.238Z,11.50
2018-10-18T15:20:48.214Z,12.37
2018-10-18T15:23:17.247Z,11.60
2018-10-18T15:25:46.265Z,11.53
2018-10-18T15:28:15.042Z,12.60
2018-10-18T15:30:44.001Z,11.67
2018-10-18T15:33:13.035Z,11.83
2018-10-18T15:35:41.920Z,11.30
2018-10-18T15:38:11.116Z,11.87
2018-10-18T15:40:39.817Z,11.33
2018-10-18T15:43:08.737Z,11.60
2018-10-18T15:45:37.689Z,11.50
2018-10-18T15:48:06.633Z,11.70
2018-10-18T15:50:35.574Z,12.20
2018-10-18T15:53:04.529Z,11.20
2018-10-18T15:55:33.439Z,12.30
2018-10-18T15:58:02.363Z,14.73
2018-10-18T16:00:31.310Z,13.40
2018-10-18T16:03:00.325Z,12.53
2018-10-18T16:05:29.234Z,12.63
2018-10-18T16:07:58.183Z,12.67
2018-10-18T16:10:27.171Z,12.70
2018-10-18T16:12:56.126Z,13.13
2018-10-18T16:15:25.148Z,13.08
2018-10-18T16:17:54.409Z,12.98
2018-10-18T16:20:23.467Z,12.58
2018-10-18T16:22:52.682Z,13.28
2018-10-18T16:25:21.617Z,13.60
2018-10-18T16:27:50.582Z,13.60
2018-10-18T16:30:19.538Z,13.15
2018-10-18T16:32:48.636Z,13.45
2018-10-18T16:35:17.740Z,11.15
2018-10-18T16:37:46.589Z,11.10
2018-10-18T16:40:15.603Z,12.15
2018-10-18T16:42:44.590Z,12.30
2018-10-18T16:45:14.139Z,12.37
2018-10-18T16:47:43.185Z,11.60
2018-10-18T16:50:12.459Z,12.37
2018-10-18T16:52:41.314Z,12.82
2018-10-18T16:55:10.438Z,15.10
2018-10-18T16:57:39.482Z,13.40
2018-10-18T17:00:09.403Z,12.70
2018-10-18T17:02:38.414Z,12.53
2018-10-18T17:05:07.428Z,12.80
2018-10-18T17:07:36.676Z,12.60
2018-10-18T17:10:06.577Z,12.75
2018-10-18T17:12:35.636Z,13.13
2018-10-18T17:15:05.606Z,12.65
2018-10-18T17:17:34.883Z,14.25
2018-10-18T17:20:04.094Z,13.22
2018-10-18T17:22:33.217Z,13.90
2018-10-18T17:25:02.148Z,14.63
2018-10-18T17:27:31.340Z,14.10
2018-10-18T17:30:00.162Z,13.70
2018-10-18T17:32:29.158Z,14.15
2018-10-18T17:34:58.036Z,13.60
2018-10-18T17:37:26.998Z,12.20
2018-10-18T17:39:56.007Z,13.72
2018-10-18T17:42:24.903Z,14.53
2018-10-18T17:44:54.046Z,13.60
2018-10-18T17:47:23.089Z,15.75
2018-10-18T17:49:52.017Z,13.32
2018-10-18T17:52:21.169Z,15.90
2018-10-18T17:54:50.193Z,15.20
2018-10-18T17:57:19.184Z,16.25
2018-10-18T17:59:48.214Z,14.50
2018-10-18T18:02:17.289Z,15.18
2018-10-18T18:04:46.192Z,14.20
2018-10-18T18:07:15.280Z,16.05
2018-10-18T18:09:44.245Z,15.18
2018-10-18T18:12:13.280Z,15.03
2018-10-18T18:14:42.216Z,14.55
2018-10-18T18:17:11.298Z,16.20
2018-10-18T18:19:40.366Z,15.25
2018-10-18T18:22:09.377Z,14.87
2018-10-18T18:24:38.458Z,15.15
2018-10-18T18:27:07.403Z,14.98
2018-10-18T18:29:36.270Z,15.05
2018-10-18T18:32:05.522Z,15.05
2018-10-18T18:34:34.434Z,15.15
2018-10-18T18:37:03.341Z,17.05
2018-10-18T18:39:32.350Z,15.08
2018-10-18T18:42:01.317Z,14.83
2018-10-18T18:44:30.207Z,17.77
2018-10-18T18:46:59.117Z,16.42
2018-10-18T18:49:28.070Z,16.75
2018-10-18T18:51:57.002Z,17.02
2018-10-18T18:54:25.948Z,17.52
2018-10-18T18:56:54.875Z,16.55
2018-10-18T18:59:23.903Z,16.42
2018-10-18T19:01:52.864Z,15.98
2018-10-18T19:04:21.809Z,15.78
2018-10-18T19:06:50.778Z,15.80
2018-10-18T19:09:19.750Z,16.30
2018-10-18T19:11:48.717Z,16.65
2018-10-18T19:14:17.610Z,15.75
2018-10-18T19:16:46.674Z,16.12
2018-10-18T19:19:15.743Z,15.23
2018-10-18T19:21:44.662Z,16.67
2018-10-18T19:24:13.649Z,19.00
2018-10-18T19:26:42.530Z,19.73
2018-10-18T19:29:11.535Z,20.70
2018-10-18T19:31:40.497Z,18.30
2018-10-18T19:34:13.281Z,23.77
2018-10-18T19:36:42.175Z,18.40
2018-10-18T19:39:11.122Z,17.57
2018-10-18T19:41:40.053Z,19.27
2018-10-18T19:44:09.229Z,17.52
2018-10-18T19:46:38.119Z,17.98
2018-10-18T19:49:07.003Z,18.73
2018-10-18T19:51:35.939Z,20.08
2018-10-18T19:54:04.998Z,20.80
2018-10-18T19:56:34.010Z,21.20
2018-10-18T19:59:03.031Z,19.32
2018-10-18T20:01:31.975Z,20.32
2018-10-18T20:04:00.925Z,21.60
2018-10-18T20:06:29.857Z,20.43
2018-10-18T20:08:58.802Z,21.62
2018-10-18T20:11:27.711Z,21.65
2018-10-18T20:13:56.716Z,22.77
2018-10-18T20:16:25.578Z,19.48
2018-10-18T20:18:54.575Z,21.75
2018-10-18T20:21:23.502Z,21.62
2018-10-18T20:23:52.471Z,22.25
2018-10-18T20:26:21.661Z,21.15
2018-10-18T20:28:50.446Z,23.25
2018-10-18T20:31:19.368Z,24.20
2018-10-18T20:33:48.433Z,23.60
2018-10-18T20:36:17.431Z,23.18
2018-10-18T20:38:46.381Z,25.12
2018-10-18T20:41:15.393Z,24.15
2018-10-18T20:43:44.343Z,22.10
2018-10-18T20:46:13.245Z,23.60
2018-10-18T20:48:42.186Z,24.67
2018-10-18T20:51:11.200Z,25.05
2018-10-18T20:53:40.054Z,24.98
2018-10-18T20:56:09.046Z,25.30
2018-10-18T20:58:38.009Z,24.35
2018-10-18T21:01:07.303Z,24.02
2018-10-18T21:03:36.215Z,25.70
2018-10-18T21:06:05.428Z,26.17
2018-10-18T21:08:34.257Z,25.02
2018-10-18T21:11:03.229Z,24.43
2018-10-18T21:13:32.143Z,25.48
2018-10-18T21:16:01.141Z,28.25
2018-10-18T21:18:30.128Z,28.55
2018-10-18T21:20:59.117Z,25.85
2018-10-18T21:23:28.007Z,27.50
2018-10-18T21:25:57.987Z,26.17
2018-10-18T21:28:26.889Z,25.05
2018-10-18T21:30:55.818Z,23.45
2018-10-18T21:33:24.951Z,26.65
2018-10-18T21:35:53.974Z,24.55
2018-10-18T21:38:22.887Z,28.77
2018-10-18T21:40:52.237Z,24.43
2018-10-18T21:43:21.112Z,27.10
2018-10-18T21:45:50.478Z,27.32
2018-10-18T21:48:19.880Z,27.82
2018-10-18T21:50:48.826Z,25.75
2018-10-18T21:53:17.739Z,27.07
2018-10-18T21:55:46.675Z,26.12
2018-10-18T21:58:15.621Z,27.20
2018-10-18T22:00:45.030Z,26.82
2018-10-18T22:03:14.147Z,26.82
2018-10-18T22:05:43.067Z,28.67
2018-10-18T22:08:11.999Z,26.68
2018-10-18T22:10:40.919Z,27.32
2018-10-18T22:13:09.854Z,27.85
2018-10-18T22:15:38.783Z,29.37
2018-10-18T22:18:07.739Z,26.77
2018-10-18T22:20:36.690Z,26.95
2018-10-18T22:23:05.802Z,27.58
2018-10-18T22:25:37.934Z,28.65
2018-10-18T22:28:06.893Z,28.40
2018-10-18T22:30:35.851Z,26.68
2018-10-18T22:33:04.937Z,28.85
2018-10-18T22:35:33.817Z,29.45
2018-10-18T22:38:02.918Z,28.65
2018-10-18T22:40:31.886Z,25.80
2018-10-18T22:43:00.854Z,25.30
2018-10-18T22:45:29.766Z,28.23
2018-10-18T22:47:58.724Z,24.87
2018-10-18T22:50:27.643Z,26.52
2018-10-18T22:52:56.601Z,26.17
2018-10-18T22:55:25.506Z,24.70
2018-10-18T22:57:54.466Z,25.30
2018-10-18T23:00:23.453Z,26.37
2018-10-18T23:02:52.367Z,27.30
2018-10-18T23:05:22.171Z,26.87
2018-10-18T23:07:51.106Z,25.15
2018-10-18T23:10:20.028Z,25.45
2018-10-18T23:12:49.096Z,23.42
2018-10-18T23:15:18.208Z,26.48
2018-10-18T23:17:46.933Z,24.23
2018-10-18T23:20:15.853Z,22.27
2018-10-18T23:22:44.729Z,26.00
2018-10-18T23:25:13.646Z,22.02
2018-10-18T23:27:42.527Z,22.95
2018-10-18T23:30:11.443Z,22.98
2018-10-18T23:32:40.367Z,25.50
2018-10-18T23:35:09.325Z,23.85
2018-10-18T23:37:38.161Z,21.82
2018-10-18T23:40:07.228Z,25.62
2018-10-18T23:42:36.223Z,21.93
2018-10-18T23:45:06.269Z,21.85
2018-10-18T23:47:35.154Z,23.60
2018-10-18T23:50:04.138Z,23.47
2018-10-18T23:52:33.138Z,24.05
2018-10-18T23:55:02.232Z,22.77
2018-10-18T23:57:31.182Z,23.65
